createdAt,value
2022-11-29T00:01:20.663Z,101484.25
2022-11-29T00:03:48.591Z,101473.88
2022-11-29T00:06:21.163Z,101480.38
2022-11-29T00:08:48.330Z,101487.06
2022-11-29T00:11:38.291Z,101483.50
2022-11-29T00:14:06.703Z,101485.56
2022-11-29T00:16:34.593Z,101473.22
2022-11-29T00:19:02.379Z,101497.03
2022-11-29T00:21:29.845Z,101486.09
2022-11-29T00:23:57.079Z,101492.31
2022-11-29T00:26:24.414Z,101482.69
2022-11-29T00:28:51.832Z,101490.53
2022-11-29T00:31:26.353Z,101502.28
2022-11-29T00:33:53.492Z,101497.06
2022-11-29T00:36:20.693Z,101499.81
2022-11-29T00:38:47.848Z,101484.53
2022-11-29T00:41:15.123Z,101497.88
2022-11-29T00:43:42.166Z,101503.25
2022-11-29T00:46:09.685Z,101499.53
2022-11-29T00:48:37.212Z,101495.13
2022-11-29T00:51:05.609Z,101493.16
2022-11-29T00:53:34.320Z,101500.53
2022-11-29T00:56:01.522Z,101506.22
2022-11-29T00:58:29.147Z,101503.78
2022-11-29T01:00:56.743Z,101486.34
2022-11-29T01:03:24.663Z,101512.94
2022-11-29T01:05:52.058Z,101495.19
2022-11-29T01:08:19.492Z,101518.16
2022-11-29T01:10:46.683Z,101525.53
2022-11-29T01:13:13.623Z,101519.00
2022-11-29T01:15:40.841Z,101504.47
2022-11-29T01:18:07.822Z,101493.09
2022-11-29T01:20:34.732Z,101528.97
2022-11-29T01:23:01.783Z,101523.75
2022-11-29T01:25:29.573Z,101522.31
2022-11-29T01:27:56.623Z,101521.00
2022-11-29T01:30:24.169Z,101524.25
2022-11-29T01:32:51.582Z,101522.81
2022-11-29T01:35:18.513Z,101511.56
2022-11-29T01:37:45.497Z,101531.97
2022-11-29T01:40:14.140Z,101531.47
2022-11-29T01:42:41.333Z,101536.38
2022-11-29T01:45:26.447Z,101535.22
2022-11-29T01:47:56.580Z,101531.31
2022-11-29T01:50:23.799Z,101546.81
2022-11-29T01:52:51.221Z,101539.16
2022-11-29T01:55:18.704Z,101538.66
2022-11-29T01:57:46.062Z,101546.00
2022-11-29T02:00:16.772Z,101538.81
2022-11-29T02:02:47.120Z,101548.91
2022-11-29T02:05:15.612Z,101552.69
2022-11-29T02:07:44.964Z,101535.06
2022-11-29T02:10:12.060Z,101544.69
2022-11-29T02:12:54.804Z,101551.72
2022-11-29T02:15:59.877Z,101530.81
2022-11-29T02:18:51.703Z,101546.16
2022-11-29T02:21:28.402Z,101540.16
2022-11-29T02:24:13.893Z,101541.91
2022-11-29T02:27:16.303Z,101548.47
2022-11-29T02:29:58.722Z,101545.84
2022-11-29T02:32:31.953Z,101533.28
2022-11-29T02:35:41.092Z,101547.78
2022-11-29T02:38:23.152Z,101558.38
2022-11-29T02:41:22.974Z,101566.22
2022-11-29T02:43:52.773Z,101569.81
2022-11-29T02:46:43.182Z,101573.69
2022-11-29T02:49:28.651Z,101577.28
2022-11-29T02:52:06.320Z,101574.50
2022-11-29T02:54:45.917Z,101597.97
2022-11-29T02:57:35.002Z,101599.44
2022-11-29T03:00:06.929Z,101599.78
2022-11-29T03:02:39.168Z,101594.38
2022-11-29T03:05:30.616Z,101595.06
2022-11-29T03:08:10.820Z,101593.56
2022-11-29T03:11:03.911Z,101603.66
2022-11-29T03:14:06.272Z,101615.56
2022-11-29T03:17:06.113Z,101611.69
2022-11-29T03:20:07.410Z,101620.97
2022-11-29T03:22:48.422Z,101612.47
2022-11-29T03:25:40.375Z,101621.75
2022-11-29T03:28:23.193Z,101619.28
2022-11-29T03:31:16.816Z,101621.59
2022-11-29T03:33:55.242Z,101626.16
2022-11-29T03:36:28.253Z,101623.56
2022-11-29T03:38:58.101Z,101624.53
2022-11-29T03:41:46.722Z,101634.13
2022-11-29T03:44:18.254Z,101631.81
2022-11-29T03:46:59.112Z,101619.72
2022-11-29T03:49:31.626Z,101618.75
2022-11-29T03:52:07.562Z,101629.44
2022-11-29T03:54:56.863Z,101625.50
2022-11-29T03:57:35.263Z,101629.59
2022-11-29T04:00:07.192Z,101639.69
2022-11-29T04:02:57.885Z,101638.88
2022-11-29T04:05:34.190Z,101638.31
2022-11-29T04:08:20.023Z,101646.63
2022-11-29T04:11:03.795Z,101643.16
2022-11-29T04:13:57.792Z,101654.88
2022-11-29T04:16:48.925Z,101655.50
2022-11-29T04:19:30.544Z,101649.16
2022-11-29T04:22:35.003Z,101664.34
2022-11-29T04:25:19.533Z,101664.50
2022-11-29T04:28:24.053Z,101664.97
2022-11-29T04:31:00.908Z,101661.56
2022-11-29T04:33:55.571Z,101649.06
2022-11-29T04:36:28.494Z,101651.59
2022-11-29T04:39:37.023Z,101667.03
2022-11-29T04:42:29.162Z,101663.44
2022-11-29T04:45:15.200Z,101676.44
2022-11-29T04:47:51.082Z,101687.72
2022-11-29T04:50:21.692Z,101687.94
2022-11-29T04:53:17.203Z,101687.34
2022-11-29T04:56:07.190Z,101694.47
2022-11-29T04:58:36.531Z,101699.44
2022-11-29T05:01:24.453Z,101692.44
2022-11-29T05:04:03.433Z,101698.31
2022-11-29T05:06:42.173Z,101708.66
2022-11-29T05:09:32.321Z,101710.84
2022-11-29T05:12:13.973Z,101709.41
2022-11-29T05:14:55.693Z,101709.41
2022-11-29T05:17:33.572Z,101712.88
2022-11-29T05:20:15.772Z,101715.47
2022-11-29T05:22:46.180Z,101698.31
2022-11-29T05:25:36.414Z,101710.59
2022-11-29T05:28:10.655Z,101722.53
2022-11-29T05:31:33.702Z,101719.28
2022-11-29T05:34:34.672Z,101722.97
2022-11-29T05:37:32.073Z,101733.63
2022-11-29T05:40:01.972Z,101724.56
2022-11-29T05:42:42.942Z,101735.88
2022-11-29T05:45:31.113Z,101727.69
2022-11-29T05:48:14.330Z,101736.72
2022-11-29T05:51:04.452Z,101739.28
2022-11-29T05:53:55.652Z,101755.97
2022-11-29T05:57:00.840Z,101746.47
2022-11-29T05:59:29.533Z,101748.63
2022-11-29T06:01:59.319Z,101756.22
2022-11-29T06:04:57.677Z,101763.91
2022-11-29T06:07:41.123Z,101766.16
2022-11-29T06:10:17.971Z,101770.44
2022-11-29T06:13:22.560Z,101770.13
2022-11-29T06:16:19.531Z,101778.13
2022-11-29T06:19:05.042Z,101776.88
2022-11-29T06:21:54.354Z,101779.75
2022-11-29T06:24:40.510Z,101786.50
2022-11-29T06:27:32.242Z,101781.88
2022-11-29T06:30:09.811Z,101777.38
2022-11-29T06:32:52.992Z,101789.16
2022-11-29T06:35:46.012Z,101798.91
2022-11-29T06:38:40.114Z,101802.41
2022-11-29T06:41:07.823Z,101782.94
2022-11-29T06:43:35.422Z,101801.91
2022-11-29T06:46:46.031Z,101791.75
2022-11-29T06:49:15.451Z,101806.78
2022-11-29T06:52:10.991Z,101816.13
2022-11-29T06:55:07.994Z,101830.16
2022-11-29T06:57:53.101Z,101829.16
2022-11-29T07:00:31.919Z,101835.09
2022-11-29T07:03:17.510Z,101834.47
2022-11-29T07:05:44.773Z,101839.38
2022-11-29T07:08:23.512Z,101837.03
2022-11-29T07:10:54.204Z,101854.53
2022-11-29T07:13:21.749Z,101847.69
2022-11-29T07:15:57.192Z,101843.59
2022-11-29T07:19:09.110Z,101855.47
2022-11-29T07:21:46.402Z,101853.81
2022-11-29T07:24:43.121Z,101865.50
2022-11-29T07:27:20.665Z,101861.75
2022-11-29T07:30:05.374Z,101852.22
2022-11-29T07:33:00.312Z,101866.34
2022-11-29T07:35:46.729Z,101871.19
2022-11-29T07:38:44.893Z,101879.06
2022-11-29T07:41:33.533Z,101878.34
2022-11-29T07:44:28.049Z,101876.38
2022-11-29T07:46:55.015Z,101867.28
2022-11-29T07:49:21.724Z,101874.13
2022-11-29T07:51:49.042Z,101868.00
2022-11-29T07:54:18.475Z,101886.84
2022-11-29T07:56:45.567Z,101888.50
2022-11-29T07:59:13.201Z,101890.94
2022-11-29T08:01:41.068Z,101898.63
2022-11-29T08:04:09.171Z,101895.75
2022-11-29T08:06:37.178Z,101892.38
2022-11-29T08:09:04.547Z,101895.03
2022-11-29T08:11:31.847Z,101895.44
2022-11-29T08:14:02.761Z,101900.97
2022-11-29T08:16:30.083Z,101886.44
2022-11-29T08:18:56.792Z,101907.94
2022-11-29T08:21:23.691Z,101907.44
2022-11-29T08:23:50.877Z,101911.25
2022-11-29T08:26:19.251Z,101923.94
2022-11-29T08:28:46.416Z,101931.63
2022-11-29T08:31:14.051Z,101926.19
2022-11-29T08:33:43.082Z,101932.25
2022-11-29T08:36:13.607Z,101939.72
2022-11-29T08:38:40.756Z,101927.63
2022-11-29T08:41:09.124Z,101904.38
2022-11-29T08:43:36.106Z,101942.38
2022-11-29T08:46:03.059Z,101940.16
2022-11-29T08:48:29.967Z,101946.09
2022-11-29T08:50:57.337Z,101946.50
2022-11-29T08:53:44.881Z,101946.06
2022-11-29T08:56:59.639Z,101950.38
2022-11-29T08:59:00.706Z,101950.59
2022-11-29T09:01:29.621Z,101948.03
2022-11-29T09:03:59.609Z,101955.00
2022-11-29T09:06:28.838Z,101945.78
2022-11-29T09:08:56.964Z,101952.53
2022-11-29T09:11:25.809Z,101954.06
2022-11-29T09:13:55.108Z,101961.97
2022-11-29T09:16:25.789Z,101952.72
2022-11-29T09:18:56.306Z,101967.09
2022-11-29T09:21:25.179Z,101973.34
2022-11-29T09:23:59.570Z,101969.22
2022-11-29T09:26:29.557Z,101953.88
2022-11-29T09:29:01.397Z,101953.06
2022-11-29T09:31:29.836Z,101963.13
2022-11-29T09:33:57.235Z,101969.16
2022-11-29T09:36:28.557Z,101974.69
2022-11-29T09:38:57.808Z,101969.50
2022-11-29T09:42:03.060Z,101982.59
2022-11-29T09:44:38.259Z,101979.31
2022-11-29T09:47:20.838Z,101978.56
2022-11-29T09:50:17.396Z,101974.25
2022-11-29T09:53:12.656Z,101990.63
2022-11-29T09:56:17.357Z,102002.28
2022-11-29T09:59:09.890Z,101990.13
2022-11-29T10:01:43.555Z,101988.63
2022-11-29T10:04:16.204Z,101979.44
2022-11-29T10:06:54.528Z,101999.72
2022-11-29T10:09:37.818Z,101986.94
2022-11-29T10:12:20.703Z,101989.16
2022-11-29T10:14:58.368Z,101993.63
2022-11-29T10:17:34.676Z,101991.16
2022-11-29T10:20:23.377Z,101999.44
2022-11-29T10:22:55.836Z,101998.94
2022-11-29T10:25:36.699Z,101987.41
2022-11-29T10:28:05.636Z,101998.97
2022-11-29T10:30:34.676Z,102006.34
2022-11-29T10:33:02.978Z,101986.75
2022-11-29T10:35:30.747Z,101994.16
2022-11-29T10:38:29.865Z,102000.56
2022-11-29T10:40:50.588Z,102003.47
2022-11-29T10:43:17.901Z,102007.91
2022-11-29T10:45:51.154Z,101995.97
2022-11-29T10:48:20.625Z,102007.22
2022-11-29T10:50:49.937Z,102005.09
2022-11-29T10:53:25.466Z,102007.56
2022-11-29T10:56:01.207Z,102006.75
2022-11-29T10:58:30.923Z,102015.94
2022-11-29T11:01:01.341Z,102009.13
2022-11-29T11:03:31.164Z,101988.19
2022-11-29T11:06:07.116Z,101984.94
2022-11-29T11:08:35.358Z,101999.97
2022-11-29T11:11:04.679Z,102008.28
2022-11-29T11:13:32.938Z,102004.34
2022-11-29T11:16:09.975Z,101995.47
2022-11-29T11:18:38.357Z,102003.50
2022-11-29T11:21:09.797Z,101998.25
2022-11-29T11:23:43.350Z,101990.09
2022-11-29T11:26:13.757Z,101996.28
2022-11-29T11:28:49.665Z,102001.69
2022-11-29T11:31:26.870Z,101973.50
2022-11-29T11:33:53.667Z,102002.31
2022-11-29T11:36:20.381Z,102008.53
2022-11-29T11:38:57.276Z,102013.78
2022-11-29T11:41:45.260Z,102012.19
2022-11-29T11:44:58.554Z,101997.44
2022-11-29T11:47:28.002Z,102001.06
2022-11-29T11:50:02.369Z,102009.41
2022-11-29T11:52:34.756Z,102007.91
2022-11-29T11:55:26.746Z,102010.03
2022-11-29T11:58:14.325Z,102020.34
2022-11-29T12:03:38.931Z,102010.50
2022-11-29T12:06:24.771Z,102020.16
2022-11-29T12:08:54.738Z,101996.88
2022-11-29T12:11:22.334Z,102014.66
2022-11-29T12:13:55.181Z,101992.44
2022-11-29T12:16:28.379Z,102007.00
2022-11-29T12:19:07.662Z,102026.13
2022-11-29T12:21:38.855Z,102024.75
2022-11-29T12:24:31.172Z,102030.13
2022-11-29T12:27:03.897Z,102023.38
2022-11-29T12:29:33.224Z,102036.06
2022-11-29T12:32:37.051Z,102041.50
2022-11-29T12:35:25.184Z,102051.88
2022-11-29T12:38:00.134Z,102052.50
2022-11-29T12:40:36.973Z,102040.06
2022-11-29T12:43:11.744Z,102060.88
2022-11-29T12:45:54.245Z,102048.47
2022-11-29T12:48:41.116Z,102060.28
2022-11-29T12:51:16.133Z,102066.47
2022-11-29T12:53:59.775Z,102069.13
2022-11-29T12:56:28.396Z,102073.53
2022-11-29T12:59:17.856Z,102078.44
2022-11-29T13:02:16.203Z,102077.47
2022-11-29T13:04:56.527Z,102064.84
2022-11-29T13:07:57.978Z,102078.28
2022-11-29T13:10:40.355Z,102075.50
2022-11-29T13:13:18.205Z,102057.84
2022-11-29T13:16:04.874Z,102073.72
2022-11-29T13:18:55.015Z,102065.38
2022-11-29T13:21:48.321Z,102080.75
2022-11-29T13:24:26.205Z,102060.63
2022-11-29T13:26:53.734Z,102080.13
2022-11-29T13:29:22.615Z,102072.75
2022-11-29T13:31:50.349Z,102078.16
2022-11-29T13:34:25.451Z,102062.25
2022-11-29T13:37:19.293Z,102077.97
2022-11-29T13:39:52.405Z,102081.34
2022-11-29T13:42:34.901Z,102072.66
2022-11-29T13:45:16.685Z,102086.22
2022-11-29T13:47:58.683Z,102069.34
2022-11-29T13:50:46.136Z,102081.47
2022-11-29T13:53:20.234Z,102084.72
2022-11-29T13:56:02.013Z,102055.34
2022-11-29T13:58:29.353Z,102072.16
2022-11-29T14:01:02.551Z,102085.06
2022-11-29T14:03:31.037Z,102082.22
2022-11-29T14:06:37.555Z,102076.31
2022-11-29T14:09:19.829Z,102055.44
2022-11-29T14:11:52.175Z,102082.63
2022-11-29T14:14:40.333Z,102081.63
2022-11-29T14:17:59.745Z,102083.06
2022-11-29T14:20:28.904Z,102088.97
2022-11-29T14:23:04.508Z,102086.81
2022-11-29T14:25:51.024Z,102079.88
2022-11-29T14:28:21.900Z,102092.00
2022-11-29T14:31:02.103Z,102092.50
2022-11-29T14:33:47.685Z,102095.91
2022-11-29T14:36:14.459Z,102100.47
2022-11-29T14:39:14.943Z,102098.47
2022-11-29T14:42:04.413Z,102096.94
2022-11-29T14:44:32.784Z,102103.47
2022-11-29T14:47:05.883Z,102104.44
2022-11-29T14:49:39.969Z,102107.69
2022-11-29T14:52:19.232Z,102109.16
2022-11-29T14:54:56.148Z,102093.19
2022-11-29T14:57:52.891Z,102102.53
2022-11-29T15:00:21.949Z,102098.44
2022-11-29T15:03:10.243Z,102110.47
2022-11-29T15:06:10.549Z,102109.22
2022-11-29T15:09:02.954Z,102112.66
2022-11-29T15:11:37.355Z,102107.22
2022-11-29T15:14:16.573Z,102111.94
2022-11-29T15:17:08.294Z,102117.13
2022-11-29T15:20:13.474Z,102122.28
2022-11-29T15:22:52.874Z,102127.06
2022-11-29T15:25:23.226Z,102124.09
2022-11-29T15:27:56.107Z,102121.69
2022-11-29T15:30:40.628Z,102128.56
2022-11-29T15:33:41.198Z,102145.47
2022-11-29T15:36:25.334Z,102141.47
2022-11-29T15:38:57.762Z,102130.13
2022-11-29T15:41:32.924Z,102148.38
2022-11-29T15:44:05.184Z,102142.44
2022-11-29T15:46:37.263Z,102125.06
2022-11-29T15:49:25.840Z,102144.97
2022-11-29T15:52:00.642Z,102130.00
2022-11-29T15:54:56.063Z,102146.13
2022-11-29T15:57:44.240Z,102145.28
2022-11-29T16:00:23.773Z,102131.75
2022-11-29T16:02:55.004Z,102139.66
2022-11-29T16:05:37.153Z,102138.22
2022-11-29T16:08:10.830Z,102150.31
2022-11-29T16:10:51.664Z,102151.75
2022-11-29T16:13:35.857Z,102156.25
2022-11-29T16:16:27.665Z,102155.22
2022-11-29T16:19:02.014Z,102160.53
2022-11-29T16:21:33.744Z,102155.97
2022-11-29T16:24:14.956Z,102159.63
2022-11-29T16:26:48.934Z,102155.81
2022-11-29T16:29:38.305Z,102157.69
2022-11-29T16:32:31.335Z,102166.16
2022-11-29T16:35:30.109Z,102159.59
2022-11-29T16:38:01.545Z,102151.81
2022-11-29T16:40:36.758Z,102142.47
2022-11-29T16:43:06.348Z,102152.44
2022-11-29T16:45:43.402Z,102157.78
2022-11-29T16:48:26.942Z,102133.47
2022-11-29T16:51:49.572Z,102155.66
2022-11-29T16:54:26.193Z,102163.25
2022-11-29T16:56:57.039Z,102155.75
2022-11-29T16:59:28.030Z,102161.19
2022-11-29T17:01:57.069Z,102160.91
2022-11-29T17:04:26.215Z,102166.72
2022-11-29T17:06:55.970Z,102150.53
2022-11-29T17:09:29.220Z,102148.03
2022-11-29T17:12:00.189Z,102167.25
2022-11-29T17:14:33.814Z,102169.91
2022-11-29T17:17:01.125Z,102179.28
2022-11-29T17:19:31.358Z,102164.38
2022-11-29T17:21:59.713Z,102169.91
2022-11-29T17:24:26.744Z,102170.13
2022-11-29T17:26:54.093Z,102177.34
2022-11-29T17:29:21.472Z,102192.63
2022-11-29T17:31:50.789Z,102191.59
2022-11-29T17:34:18.634Z,102190.47
2022-11-29T17:36:46.168Z,102201.75
2022-11-29T17:39:15.774Z,102188.31
2022-11-29T17:41:43.237Z,102199.50
2022-11-29T17:44:10.478Z,102201.16
2022-11-29T17:46:38.303Z,102200.66
2022-11-29T17:49:07.673Z,102195.88
2022-11-29T17:51:53.890Z,102200.22
2022-11-29T17:54:22.601Z,102193.84
2022-11-29T17:56:50.942Z,102205.88
2022-11-29T17:59:18.344Z,102201.25
2022-11-29T18:01:47.559Z,102191.69
2022-11-29T18:04:14.889Z,102203.91
2022-11-29T18:06:41.984Z,102199.69
2022-11-29T18:09:10.656Z,102208.53
2022-11-29T18:11:48.147Z,102200.81
2022-11-29T18:14:18.440Z,102219.72
2022-11-29T18:16:45.743Z,102215.69
2022-11-29T18:19:16.724Z,102220.44
2022-11-29T18:21:44.557Z,102224.34
2022-11-29T18:24:11.872Z,102230.09
2022-11-29T18:26:40.164Z,102230.28
2022-11-29T18:29:07.915Z,102225.88
2022-11-29T18:31:37.694Z,102230.88
2022-11-29T18:34:07.321Z,102229.88
2022-11-29T18:36:37.904Z,102224.84
2022-11-29T18:39:09.014Z,102235.00
2022-11-29T18:41:37.434Z,102233.03
2022-11-29T18:44:09.876Z,102232.63
2022-11-29T18:46:38.652Z,102216.50
2022-11-29T18:49:08.192Z,102232.53
2022-11-29T18:51:36.334Z,102240.25
2022-11-29T18:54:05.588Z,102231.59
2022-11-29T18:56:35.204Z,102239.59
2022-11-29T18:59:04.812Z,102236.00
2022-11-29T19:01:34.287Z,102250.38
2022-11-29T19:04:02.324Z,102243.69
2022-11-29T19:06:37.354Z,102260.94
2022-11-29T19:09:07.906Z,102254.25
2022-11-29T19:11:35.083Z,102240.59
2022-11-29T19:14:05.510Z,102249.09
2022-11-29T19:16:34.543Z,102252.41
2022-11-29T19:19:02.347Z,102258.38
2022-11-29T19:21:35.084Z,102249.84
2022-11-29T19:24:04.095Z,102266.53
2022-11-29T19:26:32.421Z,102252.00
2022-11-29T19:29:00.840Z,102257.25
2022-11-29T19:31:28.380Z,102265.72
2022-11-29T19:33:56.551Z,102262.75
2022-11-29T19:36:25.886Z,102267.41
2022-11-29T19:38:54.655Z,102240.00
2022-11-29T19:41:26.537Z,102246.66
2022-11-29T19:43:56.584Z,102264.84
2022-11-29T19:46:28.928Z,102266.16
2022-11-29T19:48:57.828Z,102265.56
2022-11-29T19:51:26.347Z,102254.06
2022-11-29T19:53:56.516Z,102262.19
2022-11-29T19:56:24.294Z,102260.88
2022-11-29T19:58:51.673Z,102278.16
2022-11-29T20:01:23.322Z,102269.59
2022-11-29T20:03:50.937Z,102264.28
2022-11-29T20:06:19.293Z,102272.81
2022-11-29T20:08:47.225Z,102279.59
2022-11-29T20:11:19.566Z,102286.25
2022-11-29T20:14:00.453Z,102281.88
2022-11-29T20:16:29.214Z,102293.97
2022-11-29T20:18:57.686Z,102279.88
2022-11-29T20:21:28.246Z,102289.97
2022-11-29T20:24:02.092Z,102297.34
2022-11-29T20:26:31.306Z,102297.03
2022-11-29T20:28:59.555Z,102293.44
2022-11-29T20:31:26.813Z,102293.75
2022-11-29T20:33:57.689Z,102299.50
2022-11-29T20:36:32.083Z,102299.28
2022-11-29T20:39:29.418Z,102301.56
2022-11-29T20:42:27.564Z,102307.44
2022-11-29T20:44:57.743Z,102293.47
2022-11-29T20:47:47.075Z,102292.53
2022-11-29T20:50:23.275Z,102306.91
2022-11-29T20:53:16.758Z,102310.31
2022-11-29T20:55:47.893Z,102305.06
2022-11-29T20:58:16.475Z,102315.97
2022-11-29T21:00:43.937Z,102301.69
2022-11-29T21:03:19.060Z,102304.88
2022-11-29T21:05:47.022Z,102318.13
2022-11-29T21:08:15.373Z,102324.72
2022-11-29T21:10:42.783Z,102315.06
2022-11-29T21:13:13.884Z,102318.75
2022-11-29T21:15:41.862Z,102324.50
2022-11-29T21:18:19.254Z,102317.94
2022-11-29T21:20:49.654Z,102293.47
2022-11-29T21:23:30.683Z,102308.56
2022-11-29T21:26:23.534Z,102318.63
2022-11-29T21:29:02.956Z,102316.38
2022-11-29T21:31:30.704Z,102301.69
2022-11-29T21:33:58.235Z,102316.56
2022-11-29T21:36:25.825Z,102315.22
2022-11-29T21:38:55.250Z,102317.28
2022-11-29T21:41:23.824Z,102304.56
2022-11-29T21:44:06.067Z,102310.94
2022-11-29T21:46:35.428Z,102314.75
2022-11-29T21:49:02.400Z,102317.63
2022-11-29T21:51:29.755Z,102306.50
2022-11-29T21:53:56.693Z,102324.22
2022-11-29T21:56:23.993Z,102325.63
2022-11-29T21:58:50.987Z,102328.94
2022-11-29T22:01:20.322Z,102312.50
2022-11-29T22:03:47.813Z,102322.84
2022-11-29T22:06:18.769Z,102313.84
2022-11-29T22:08:46.033Z,102315.78
2022-11-29T22:11:16.196Z,102330.56
2022-11-29T22:14:02.996Z,102311.97
2022-11-29T22:16:31.289Z,102329.66
2022-11-29T22:18:58.187Z,102335.72
2022-11-29T22:21:25.173Z,102324.09
2022-11-29T22:23:52.686Z,102325.72
2022-11-29T22:26:21.893Z,102330.34
2022-11-29T22:28:49.113Z,102314.31
2022-11-29T22:31:16.739Z,102301.69
2022-11-29T22:33:43.544Z,102326.75
2022-11-29T22:36:12.278Z,102322.34
2022-11-29T22:38:40.156Z,102334.25
2022-11-29T22:41:09.909Z,102326.56
2022-11-29T22:43:38.614Z,102320.78
2022-11-29T22:46:16.132Z,102331.78
2022-11-29T22:48:44.774Z,102309.63
2022-11-29T22:51:17.635Z,102330.97
2022-11-29T22:53:50.545Z,102335.78
2022-11-29T22:56:18.214Z,102332.91
2022-11-29T22:58:46.053Z,102340.81
2022-11-29T23:01:18.201Z,102337.81
2022-11-29T23:03:48.594Z,102342.16
2022-11-29T23:06:18.042Z,102337.91
2022-11-29T23:08:46.294Z,102331.16
2022-11-29T23:11:18.974Z,102335.16
2022-11-29T23:13:46.542Z,102343.38
2022-11-29T23:16:16.687Z,102342.38
2022-11-29T23:18:45.965Z,102346.81
2022-11-29T23:21:14.186Z,102356.75
2022-11-29T23:23:41.986Z,102345.66
2022-11-29T23:26:09.845Z,102360.97
2022-11-29T23:28:37.352Z,102358.41
2022-11-29T23:31:04.205Z,102337.97
2022-11-29T23:33:31.283Z,102355.75
2022-11-29T23:36:03.017Z,102351.31
2022-11-29T23:38:30.743Z,102340.22
2022-11-29T23:40:57.992Z,102353.69
2022-11-29T23:43:25.414Z,102365.19
2022-11-29T23:45:52.994Z,102364.88
2022-11-29T23:48:20.094Z,102355.13
2022-11-29T23:50:47.374Z,102351.84
2022-11-29T23:53:16.093Z,102368.59
2022-11-29T23:55:43.304Z,102360.06
2022-11-29T23:58:10.764Z,102365.91
